Decoded Metar for KSAV (SAVANNAH in GA, USA) (IATA:SAV) | Meteo·Mobile Aviation Weather
aviador You're here:

KSAV Decoded Metar

SAVANNAH in GA, USA
Report Time2018-09-20 13:53:00
UTC Time2018-09-20 14:35:03
Flight Rules vfr VFR
Wind050° at 05 kt
W.Decomp.*RWY 10: 3.6 kt HW 3.5 kt LCW
RWY 01: 3.5 kt HW 3.6 kt RCW
W.Rank050° ranks 24
Current wind is below 050° avg. (7.1)
Visibility9999 m
Phenomena:N/A
Clouds:Few 025 Hf
Expected CloudBase > 1,600 ft AGL from Temp-Dew spread
CeilingNone
Temp28°C (ISA +13)
Dew Point24°C (79% RH)
Heat Index31.9°C
QNH1020 hPa
Density Alt1,709 ft
Elevation46 ft
Report Wrong Elevation
Raw Report
KSAV 201353Z 05005KT 10SM FEW025 28/24 A3012 RMK AO2 SLP199
T02830239=

Extra information for KSAV:More info

Metar Taf Metar & Taf Last 4 Metars F.Rules Stats Wind Profile Meteogram Temp Stats Airport Information Weather charts Add Link Nearby VenuesMetar ALERT Operation Metar Decoded Social comments

AIRNAV info for KSAV